sensor_id;sensor_type;location;lat;lon;timestamp;pressure;altitude;pressure_sealevel;temperature;humidity
56831;BME280;42713;42.676;23.352;2022-08-19T00:01:21;94517.59;;;25.32;44.34
56831;BME280;42713;42.676;23.352;2022-08-19T00:03:47;94515.66;;;25.32;44.04
56831;BME280;42713;42.676;23.352;2022-08-19T00:06:13;94535.09;;;25.29;43.75
56831;BME280;42713;42.676;23.352;2022-08-19T00:08:39;94532.91;;;25.19;43.66
56831;BME280;42713;42.676;23.352;2022-08-19T00:11:05;94535.69;;;25.23;44.09
56831;BME280;42713;42.676;23.352;2022-08-19T00:13:31;94527.44;;;25.15;43.58
56831;BME280;42713;42.676;23.352;2022-08-19T00:15:57;94529.56;;;25.22;43.00
56831;BME280;42713;42.676;23.352;2022-08-19T00:18:24;94539.94;;;25.24;43.09
56831;BME280;42713;42.676;23.352;2022-08-19T00:20:49;94533.34;;;25.21;42.84
56831;BME280;42713;42.676;23.352;2022-08-19T00:23:15;94535.81;;;25.26;42.20
56831;BME280;42713;42.676;23.352;2022-08-19T00:25:41;94546.09;;;25.24;42.39
56831;BME280;42713;42.676;23.352;2022-08-19T00:28:06;94540.19;;;25.18;42.46
56831;BME280;42713;42.676;23.352;2022-08-19T00:30:32;94538.44;;;24.98;42.89
56831;BME280;42713;42.676;23.352;2022-08-19T00:32:58;94547.06;;;24.91;44.00
56831;BME280;42713;42.676;23.352;2022-08-19T00:35:23;94547.88;;;24.79;44.41
56831;BME280;42713;42.676;23.352;2022-08-19T00:37:49;94534.44;;;24.67;44.07
56831;BME280;42713;42.676;23.352;2022-08-19T00:40:16;94533.34;;;24.55;44.52
56831;BME280;42713;42.676;23.352;2022-08-19T00:42:43;94537.81;;;24.51;45.57
56831;BME280;42713;42.676;23.352;2022-08-19T00:45:21;94529.78;;;24.39;45.63
56831;BME280;42713;42.676;23.352;2022-08-19T00:47:47;94532.25;;;24.44;45.37
56831;BME280;42713;42.676;23.352;2022-08-19T00:50:14;94539.03;;;24.42;45.70
56831;BME280;42713;42.676;23.352;2022-08-19T00:52:44;94543.19;;;24.39;45.98
56831;BME280;42713;42.676;23.352;2022-08-19T00:55:13;94533.81;;;24.33;45.92
56831;BME280;42713;42.676;23.352;2022-08-19T00:57:41;94531.69;;;24.26;46.41
56831;BME280;42713;42.676;23.352;2022-08-19T01:00:12;94523.44;;;24.19;46.33
56831;BME280;42713;42.676;23.352;2022-08-19T01:02:40;94533.69;;;24.17;46.79
56831;BME280;42713;42.676;23.352;2022-08-19T01:05:09;94537.84;;;24.14;46.99
56831;BME280;42713;42.676;23.352;2022-08-19T01:07:36;94547.19;;;24.20;47.21
56831;BME280;42713;42.676;23.352;2022-08-19T01:10:04;94539.81;;;24.17;47.23
56831;BME280;42713;42.676;23.352;2022-08-19T01:12:30;94535.56;;;24.16;47.51
56831;BME280;42713;42.676;23.352;2022-08-19T01:14:56;94537.38;;;24.12;47.51
56831;BME280;42713;42.676;23.352;2022-08-19T01:17:22;94536.16;;;24.09;47.67
56831;BME280;42713;42.676;23.352;2022-08-19T01:19:48;94537.25;;;24.08;47.87
56831;BME280;42713;42.676;23.352;2022-08-19T01:24:49;94535.69;;;24.07;48.22
56831;BME280;42713;42.676;23.352;2022-08-19T01:27:17;94533.22;;;24.02;48.43
56831;BME280;42713;42.676;23.352;2022-08-19T01:29:44;94526.41;;;23.92;48.15
56831;BME280;42713;42.676;23.352;2022-08-19T01:32:13;94537.63;;;23.86;48.31
56831;BME280;42713;42.676;23.352;2022-08-19T01:34:40;94542.41;;;23.80;48.09
56831;BME280;42713;42.676;23.352;2022-08-19T01:37:08;94534.63;;;23.75;48.61
56831;BME280;42713;42.676;23.352;2022-08-19T01:39:38;94532.78;;;23.67;48.80
56831;BME280;42713;42.676;23.352;2022-08-19T01:42:04;94533.94;;;23.66;48.51
56831;BME280;42713;42.676;23.352;2022-08-19T01:44:31;94541.16;;;23.65;48.40
56831;BME280;42713;42.676;23.352;2022-08-19T01:46:57;94534.25;;;23.64;48.15
56831;BME280;42713;42.676;23.352;2022-08-19T01:49:23;94533.22;;;23.56;48.72
56831;BME280;42713;42.676;23.352;2022-08-19T01:51:50;94529.44;;;23.57;48.63
56831;BME280;42713;42.676;23.352;2022-08-19T01:54:17;94533.09;;;23.53;48.91
56831;BME280;42713;42.676;23.352;2022-08-19T01:56:43;94535.75;;;23.53;49.06
56831;BME280;42713;42.676;23.352;2022-08-19T01:59:13;94526.84;;;23.49;49.40
56831;BME280;42713;42.676;23.352;2022-08-19T02:01:39;94530.97;;;23.46;49.05
56831;BME280;42713;42.676;23.352;2022-08-19T02:04:05;94537.50;;;23.36;49.72
56831;BME280;42713;42.676;23.352;2022-08-19T02:06:31;94540.41;;;23.43;48.25
56831;BME280;42713;42.676;23.352;2022-08-19T02:08:57;94540.28;;;23.40;48.32
56831;BME280;42713;42.676;23.352;2022-08-19T02:11:31;94541.41;;;23.39;47.74
56831;BME280;42713;42.676;23.352;2022-08-19T02:13:57;94534.06;;;23.36;48.56
56831;BME280;42713;42.676;23.352;2022-08-19T02:16:23;94537.50;;;23.36;49.59
56831;BME280;42713;42.676;23.352;2022-08-19T02:18:49;94531.56;;;23.30;49.18
56831;BME280;42713;42.676;23.352;2022-08-19T02:21:20;94530.25;;;23.15;48.90
56831;BME280;42713;42.676;23.352;2022-08-19T02:23:48;94527.44;;;23.12;49.68
56831;BME280;42713;42.676;23.352;2022-08-19T02:26:14;94537.69;;;23.10;49.39
56831;BME280;42713;42.676;23.352;2022-08-19T02:28:41;94537.69;;;23.10;49.17
56831;BME280;42713;42.676;23.352;2022-08-19T02:31:12;94542.56;;;23.08;48.76
56831;BME280;42713;42.676;23.352;2022-08-19T02:33:40;94543.88;;;23.01;48.58
56831;BME280;42713;42.676;23.352;2022-08-19T02:36:06;94542.19;;;22.97;48.35
56831;BME280;42713;42.676;23.352;2022-08-19T02:38:32;94531.31;;;23.02;48.10
56831;BME280;42713;42.676;23.352;2022-08-19T02:41:03;94537.31;;;22.99;48.15
56831;BME280;42713;42.676;23.352;2022-08-19T02:43:31;94537.94;;;22.96;49.36
56831;BME280;42713;42.676;23.352;2022-08-19T02:45:57;94549.81;;;22.86;50.24
56831;BME280;42713;42.676;23.352;2022-08-19T02:48:24;94547.19;;;22.77;50.38
56831;BME280;42713;42.676;23.352;2022-08-19T02:50:52;94549.72;;;22.74;50.60
56831;BME280;42713;42.676;23.352;2022-08-19T02:53:22;94553.97;;;22.75;50.90
56831;BME280;42713;42.676;23.352;2022-08-19T02:55:50;94558.06;;;22.72;50.85
56831;BME280;42713;42.676;23.352;2022-08-19T02:58:16;94554.25;;;22.73;50.53
56831;BME280;42713;42.676;23.352;2022-08-19T03:00:46;94557.59;;;22.70;50.77
56831;BME280;42713;42.676;23.352;2022-08-19T03:03:12;94560.56;;;22.68;51.07
56831;BME280;42713;42.676;23.352;2022-08-19T03:05:38;94553.09;;;22.62;51.38
56831;BME280;42713;42.676;23.352;2022-08-19T03:08:04;94551.69;;;22.56;51.62
56831;BME280;42713;42.676;23.352;2022-08-19T03:10:31;94559.72;;;22.56;51.85
56831;BME280;42713;42.676;23.352;2022-08-19T03:12:57;94556.75;;;22.57;51.65
56831;BME280;42713;42.676;23.352;2022-08-19T03:15:23;94552.81;;;22.54;52.11
56831;BME280;42713;42.676;23.352;2022-08-19T03:17:48;94551.91;;;22.50;52.47
56831;BME280;42713;42.676;23.352;2022-08-19T03:20:14;94542.00;;;22.51;52.54
56831;BME280;42713;42.676;23.352;2022-08-19T03:22:39;94548.25;;;22.55;52.42
56831;BME280;42713;42.676;23.352;2022-08-19T03:25:05;94540.25;;;22.55;52.49
56831;BME280;42713;42.676;23.352;2022-08-19T03:27:31;94541.81;;;22.56;52.73
56831;BME280;42713;42.676;23.352;2022-08-19T03:29:56;94547.47;;;22.54;52.83
56831;BME280;42713;42.676;23.352;2022-08-19T03:32:22;94549.38;;;22.54;52.25
56831;BME280;42713;42.676;23.352;2022-08-19T03:34:48;94540.56;;;22.53;52.58
56831;BME280;42713;42.676;23.352;2022-08-19T03:37:14;94546.88;;;22.49;52.92
56831;BME280;42713;42.676;23.352;2022-08-19T03:39:40;94545.63;;;22.46;52.63
56831;BME280;42713;42.676;23.352;2022-08-19T03:42:07;94558.19;;;22.46;52.92
56831;BME280;42713;42.676;23.352;2022-08-19T03:44:33;94553.97;;;22.36;53.48
56831;BME280;42713;42.676;23.352;2022-08-19T03:46:59;94558.06;;;22.33;53.47
56831;BME280;42713;42.676;23.352;2022-08-19T03:49:28;94565.59;;;22.31;53.53
56831;BME280;42713;42.676;23.352;2022-08-19T03:51:56;94564.84;;;22.31;53.67
56831;BME280;42713;42.676;23.352;2022-08-19T03:54:23;94568.94;;;22.28;53.59
56831;BME280;42713;42.676;23.352;2022-08-19T03:56:51;94571.28;;;22.30;53.66
56831;BME280;42713;42.676;23.352;2022-08-19T03:59:23;94573.81;;;22.26;53.45
56831;BME280;42713;42.676;23.352;2022-08-19T04:01:56;94576.13;;;22.28;53.64
56831;BME280;42713;42.676;23.352;2022-08-19T04:04:22;94574.91;;;22.16;54.09
56831;BME280;42713;42.676;23.352;2022-08-19T04:06:48;94579.66;;;22.11;53.76
56831;BME280;42713;42.676;23.352;2022-08-19T04:09:15;94582.00;;;22.12;54.19
56831;BME280;42713;42.676;23.352;2022-08-19T04:11:48;94579.47;;;22.16;53.76
56831;BME280;42713;42.676;23.352;2022-08-19T04:14:17;94584.97;;;22.11;53.91
56831;BME280;42713;42.676;23.352;2022-08-19T04:16:45;94589.69;;;22.14;53.85
56831;BME280;42713;42.676;23.352;2022-08-19T04:19:12;94592.03;;;22.15;53.68
56831;BME280;42713;42.676;23.352;2022-08-19T04:21:38;94590.44;;;22.14;53.73
56831;BME280;42713;42.676;23.352;2022-08-19T04:24:03;94595.97;;;22.18;53.91
56831;BME280;42713;42.676;23.352;2022-08-19T04:26:32;94594.03;;;22.27;54.07
56831;BME280;42713;42.676;23.352;2022-08-19T04:29:00;94592.13;;;22.36;53.70
56831;BME280;42713;42.676;23.352;2022-08-19T04:31:28;94600.75;;;22.42;53.86
56831;BME280;42713;42.676;23.352;2022-08-19T04:33:59;94598.69;;;22.48;53.99
56831;BME280;42713;42.676;23.352;2022-08-19T04:36:31;94602.75;;;22.54;54.00
56831;BME280;42713;42.676;23.352;2022-08-19T04:38:59;94603.22;;;22.56;53.74
56831;BME280;42713;42.676;23.352;2022-08-19T04:41:25;94598.16;;;22.63;53.06
56831;BME280;42713;42.676;23.352;2022-08-19T04:44:10;94591.44;;;22.57;53.28
56831;BME280;42713;42.676;23.352;2022-08-19T04:46:37;94595.97;;;22.57;53.71
56831;BME280;42713;42.676;23.352;2022-08-19T04:49:04;94582.97;;;22.55;53.59
56831;BME280;42713;42.676;23.352;2022-08-19T04:51:31;94584.66;;;22.60;53.83
56831;BME280;42713;42.676;23.352;2022-08-19T04:53:57;94596.41;;;22.67;53.87
56831;BME280;42713;42.676;23.352;2022-08-19T04:56:22;94599.50;;;22.69;54.15
56831;BME280;42713;42.676;23.352;2022-08-19T04:58:51;94595.09;;;22.74;54.24
56831;BME280;42713;42.676;23.352;2022-08-19T05:01:21;94592.91;;;22.76;54.02
56831;BME280;42713;42.676;23.352;2022-08-19T05:03:47;94596.34;;;22.76;53.71
56831;BME280;42713;42.676;23.352;2022-08-19T05:06:14;94598.38;;;22.79;53.52
56831;BME280;42713;42.676;23.352;2022-08-19T05:08:41;94607.16;;;22.80;53.54
56831;BME280;42713;42.676;23.352;2022-08-19T05:11:29;94603.50;;;22.84;53.37
56831;BME280;42713;42.676;23.352;2022-08-19T05:13:56;94599.09;;;22.89;53.61
56831;BME280;42713;42.676;23.352;2022-08-19T05:16:23;94599.03;;;22.97;53.79
56831;BME280;42713;42.676;23.352;2022-08-19T05:18:49;94601.88;;;23.01;53.23
56831;BME280;42713;42.676;23.352;2022-08-19T05:21:34;94601.53;;;23.03;52.26
56831;BME280;42713;42.676;23.352;2022-08-19T05:24:18;94594.44;;;23.07;52.27
56831;BME280;42713;42.676;23.352;2022-08-19T05:26:47;94601.78;;;23.10;51.87
56831;BME280;42713;42.676;23.352;2022-08-19T05:29:15;94598.94;;;23.15;51.53
56831;BME280;42713;42.676;23.352;2022-08-19T05:31:42;94604.91;;;23.21;51.55
56831;BME280;42713;42.676;23.352;2022-08-19T05:34:08;94607.56;;;23.21;51.19
56831;BME280;42713;42.676;23.352;2022-08-19T05:36:38;94601.25;;;23.25;51.51
56831;BME280;42713;42.676;23.352;2022-08-19T05:39:05;94604.19;;;23.33;52.33
56831;BME280;42713;42.676;23.352;2022-08-19T05:41:31;94612.66;;;23.35;52.37
56831;BME280;42713;42.676;23.352;2022-08-19T05:43:58;94602.88;;;23.39;52.22
56831;BME280;42713;42.676;23.352;2022-08-19T05:46:26;94605.66;;;23.42;51.99
56831;BME280;42713;42.676;23.352;2022-08-19T05:48:51;94608.16;;;23.47;52.16
56831;BME280;42713;42.676;23.352;2022-08-19T05:51:17;94603.69;;;23.52;51.37
56831;BME280;42713;42.676;23.352;2022-08-19T05:53:42;94599.03;;;23.49;51.23
56831;BME280;42713;42.676;23.352;2022-08-19T05:56:13;94594.69;;;23.56;51.76
56831;BME280;42713;42.676;23.352;2022-08-19T05:58:41;94613.69;;;23.63;51.79
56831;BME280;42713;42.676;23.352;2022-08-19T06:01:13;94601.19;;;23.68;51.53
56831;BME280;42713;42.676;23.352;2022-08-19T06:03:43;94610.13;;;23.72;51.22
56831;BME280;42713;42.676;23.352;2022-08-19T06:06:10;94607.94;;;23.74;51.53
56831;BME280;42713;42.676;23.352;2022-08-19T06:08:37;94602.56;;;23.74;52.10
56831;BME280;42713;42.676;23.352;2022-08-19T06:13:49;94613.41;;;23.77;50.48
56831;BME280;42713;42.676;23.352;2022-08-19T06:16:18;94613.41;;;23.77;50.44
56831;BME280;42713;42.676;23.352;2022-08-19T06:18:49;94614.38;;;23.73;50.97
56831;BME280;42713;42.676;23.352;2022-08-19T06:21:19;94616.38;;;23.76;51.13
56831;BME280;42713;42.676;23.352;2022-08-19T06:23:46;94619.19;;;23.80;50.64
56831;BME280;42713;42.676;23.352;2022-08-19T06:26:13;94611.28;;;23.83;51.01
56831;BME280;42713;42.676;23.352;2022-08-19T06:28:39;94616.53;;;23.92;51.51
56831;BME280;42713;42.676;23.352;2022-08-19T06:31:17;94613.38;;;23.99;51.51
56831;BME280;42713;42.676;23.352;2022-08-19T06:33:44;94615.84;;;24.04;51.42
56831;BME280;42713;42.676;23.352;2022-08-19T06:38:53;94613.19;;;24.16;51.70
56831;BME280;42713;42.676;23.352;2022-08-19T06:41:19;94615.66;;;24.21;51.62
56831;BME280;42713;42.676;23.352;2022-08-19T06:43:45;94610.88;;;24.27;51.08
56831;BME280;42713;42.676;23.352;2022-08-19T06:46:15;94608.31;;;24.31;51.26
56831;BME280;42713;42.676;23.352;2022-08-19T06:48:41;94609.66;;;24.37;50.84
56831;BME280;42713;42.676;23.352;2022-08-19T06:51:07;94609.44;;;24.42;50.30
56831;BME280;42713;42.676;23.352;2022-08-19T06:53:33;94615.34;;;24.48;50.04
56831;BME280;42713;42.676;23.352;2022-08-19T06:55:59;94610.31;;;24.46;49.64
56831;BME280;42713;42.676;23.352;2022-08-19T06:58:32;94615.91;;;24.53;49.25
56831;BME280;42713;42.676;23.352;2022-08-19T07:01:04;94614.56;;;24.60;49.10
56831;BME280;42713;42.676;23.352;2022-08-19T07:03:32;94614.34;;;24.65;49.56
56831;BME280;42713;42.676;23.352;2022-08-19T07:06:03;94624.41;;;24.68;48.31
56831;BME280;42713;42.676;23.352;2022-08-19T07:08:29;94620.94;;;24.67;48.59
56831;BME280;42713;42.676;23.352;2022-08-19T07:10:55;94622.75;;;24.76;49.11
56831;BME280;42713;42.676;23.352;2022-08-19T07:13:20;94617.06;;;24.77;48.89
56831;BME280;42713;42.676;23.352;2022-08-19T07:15:47;94626.88;;;24.85;49.24
56831;BME280;42713;42.676;23.352;2022-08-19T07:18:14;94625.53;;;24.92;49.15
56831;BME280;42713;42.676;23.352;2022-08-19T07:20:40;94621.06;;;24.96;48.99
56831;BME280;42713;42.676;23.352;2022-08-19T07:23:06;94618.16;;;25.01;49.18
56831;BME280;42713;42.676;23.352;2022-08-19T07:25:32;94621.03;;;25.08;48.91
56831;BME280;42713;42.676;23.352;2022-08-19T07:27:57;94623.16;;;25.15;49.54
56831;BME280;42713;42.676;23.352;2022-08-19T07:30:23;94621.03;;;25.21;49.41
56831;BME280;42713;42.676;23.352;2022-08-19T07:32:49;94625.03;;;25.27;48.62
56831;BME280;42713;42.676;23.352;2022-08-19T07:35:16;94623.25;;;25.31;48.05
56831;BME280;42713;42.676;23.352;2022-08-19T07:37:44;94612.63;;;25.35;48.05
56831;BME280;42713;42.676;23.352;2022-08-19T07:40:15;94613.84;;;25.37;48.02
56831;BME280;42713;42.676;23.352;2022-08-19T07:42:41;94606.25;;;25.39;48.07
56831;BME280;42713;42.676;23.352;2022-08-19T07:45:08;94607.25;;;25.47;48.02
56831;BME280;42713;42.676;23.352;2022-08-19T07:47:35;94612.81;;;25.54;47.76
56831;BME280;42713;42.676;23.352;2022-08-19T07:50:01;94621.06;;;25.61;48.27
56831;BME280;42713;42.676;23.352;2022-08-19T07:52:29;94613.91;;;25.66;48.00
56831;BME280;42713;42.676;23.352;2022-08-19T07:54:55;94619.44;;;25.73;46.01
56831;BME280;42713;42.676;23.352;2022-08-19T07:57:20;94619.09;;;25.74;46.05
56831;BME280;42713;42.676;23.352;2022-08-19T07:59:46;94616.41;;;25.74;46.09
56831;BME280;42713;42.676;23.352;2022-08-19T08:02:11;94610.38;;;25.77;46.17
56831;BME280;42713;42.676;23.352;2022-08-19T08:04:37;94613.34;;;25.88;45.99
56831;BME280;42713;42.676;23.352;2022-08-19T08:07:21;94623.38;;;25.91;46.15
56831;BME280;42713;42.676;23.352;2022-08-19T08:10:07;94608.59;;;25.98;45.83
56831;BME280;42713;42.676;23.352;2022-08-19T08:12:37;94608.44;;;26.06;46.76
56831;BME280;42713;42.676;23.352;2022-08-19T08:15:11;94601.38;;;26.14;46.60
56831;BME280;42713;42.676;23.352;2022-08-19T08:17:37;94603.44;;;26.21;46.38
56831;BME280;42713;42.676;23.352;2022-08-19T08:20:06;94597.91;;;26.30;46.05
56831;BME280;42713;42.676;23.352;2022-08-19T08:22:32;94602.69;;;26.36;45.55
56831;BME280;42713;42.676;23.352;2022-08-19T08:25:20;94596.38;;;26.45;45.40
56831;BME280;42713;42.676;23.352;2022-08-19T08:27:46;94593.06;;;26.51;45.17
56831;BME280;42713;42.676;23.352;2022-08-19T08:30:15;94585.53;;;26.57;45.54
56831;BME280;42713;42.676;23.352;2022-08-19T08:32:41;94594.94;;;26.67;45.50
56831;BME280;42713;42.676;23.352;2022-08-19T08:35:10;94589.75;;;26.74;45.64
56831;BME280;42713;42.676;23.352;2022-08-19T08:37:36;94595.25;;;26.78;44.53
56831;BME280;42713;42.676;23.352;2022-08-19T08:40:28;94592.72;;;26.85;45.35
56831;BME280;42713;42.676;23.352;2022-08-19T08:43:05;94587.06;;;26.90;44.20
56831;BME280;42713;42.676;23.352;2022-08-19T08:45:34;94586.94;;;27.02;43.61
56831;BME280;42713;42.676;23.352;2022-08-19T08:48:16;94583.28;;;27.11;44.08
56831;BME280;42713;42.676;23.352;2022-08-19T08:50:45;94573.47;;;27.18;41.77
56831;BME280;42713;42.676;23.352;2022-08-19T08:53:14;94569.28;;;27.21;40.49
56831;BME280;42713;42.676;23.352;2022-08-19T08:55:41;94571.34;;;27.28;41.09
56831;BME280;42713;42.676;23.352;2022-08-19T08:58:36;94566.75;;;27.28;39.50
56831;BME280;42713;42.676;23.352;2022-08-19T09:00:56;94567.41;;;27.41;39.85
56831;BME280;42713;42.676;23.352;2022-08-19T09:03:25;94573.78;;;27.53;40.62
56831;BME280;42713;42.676;23.352;2022-08-19T09:06:07;94569.38;;;27.64;39.20
56831;BME280;42713;42.676;23.352;2022-08-19T09:16:29;94557.81;;;27.83;38.02
56831;BME280;42713;42.676;23.352;2022-08-19T09:18:58;94559.22;;;27.96;37.42
56831;BME280;42713;42.676;23.352;2022-08-19T09:21:26;94558.97;;;28.05;37.61
56831;BME280;42713;42.676;23.352;2022-08-19T09:23:53;94560.31;;;28.15;37.94
56831;BME280;42713;42.676;23.352;2022-08-19T09:26:20;94550.09;;;28.24;37.60
56831;BME280;42713;42.676;23.352;2022-08-19T09:28:48;94552.94;;;28.35;37.94
56831;BME280;42713;42.676;23.352;2022-08-19T09:31:16;94546.19;;;28.45;38.96
56831;BME280;42713;42.676;23.352;2022-08-19T09:33:42;94544.00;;;28.54;37.78
56831;BME280;42713;42.676;23.352;2022-08-19T09:36:14;94540.22;;;28.59;37.13
56831;BME280;42713;42.676;23.352;2022-08-19T09:38:40;94535.31;;;28.65;36.06
56831;BME280;42713;42.676;23.352;2022-08-19T09:41:08;94535.78;;;28.70;35.47
56831;BME280;42713;42.676;23.352;2022-08-19T09:43:34;94537.84;;;28.81;35.62
56831;BME280;42713;42.676;23.352;2022-08-19T09:46:05;94539.19;;;28.94;34.65
56831;BME280;42713;42.676;23.352;2022-08-19T09:48:35;94526.53;;;28.98;33.75
56831;BME280;42713;42.676;23.352;2022-08-19T09:51:10;94539.44;;;29.12;34.83
56831;BME280;42713;42.676;23.352;2022-08-19T09:53:37;94538.75;;;29.19;34.38
56831;BME280;42713;42.676;23.352;2022-08-19T09:56:06;94536.47;;;29.25;34.25
56831;BME280;42713;42.676;23.352;2022-08-19T09:58:32;94526.13;;;29.30;32.96
56831;BME280;42713;42.676;23.352;2022-08-19T10:01:03;94527.19;;;29.22;31.92
56831;BME280;42713;42.676;23.352;2022-08-19T10:03:30;94526.38;;;29.14;32.31
56831;BME280;42713;42.676;23.352;2022-08-19T10:05:59;94515.25;;;29.19;31.29
56831;BME280;42713;42.676;23.352;2022-08-19T10:08:29;94517.16;;;29.19;32.18
56831;BME280;42713;42.676;23.352;2022-08-19T10:10:56;94514.97;;;29.28;32.87
56831;BME280;42713;42.676;23.352;2022-08-19T10:13:25;94511.66;;;29.39;33.80
56831;BME280;42713;42.676;23.352;2022-08-19T10:15:53;94504.69;;;29.38;32.02
56831;BME280;42713;42.676;23.352;2022-08-19T10:18:20;94508.94;;;29.39;31.95
56831;BME280;42713;42.676;23.352;2022-08-19T10:20:47;94502.06;;;29.45;31.58
56831;BME280;42713;42.676;23.352;2022-08-19T10:23:17;94503.31;;;29.55;31.57
56831;BME280;42713;42.676;23.352;2022-08-19T10:25:43;94499.19;;;29.64;31.80
56831;BME280;42713;42.676;23.352;2022-08-19T10:28:09;94496.13;;;29.70;32.36
56831;BME280;42713;42.676;23.352;2022-08-19T10:30:38;94498.13;;;29.76;32.64
56831;BME280;42713;42.676;23.352;2022-08-19T10:33:05;94491.25;;;29.83;31.59
56831;BME280;42713;42.676;23.352;2022-08-19T10:35:32;94494.00;;;29.90;31.40
56831;BME280;42713;42.676;23.352;2022-08-19T10:37:59;94488.59;;;29.86;30.54
56831;BME280;42713;42.676;23.352;2022-08-19T10:40:27;94490.06;;;29.80;30.74
56831;BME280;42713;42.676;23.352;2022-08-19T10:42:53;94475.44;;;29.85;31.49
56831;BME280;42713;42.676;23.352;2022-08-19T10:45:21;94481.34;;;29.94;31.94
56831;BME280;42713;42.676;23.352;2022-08-19T10:47:52;94484.09;;;29.98;32.13
56831;BME280;42713;42.676;23.352;2022-08-19T10:50:18;94482.59;;;30.04;31.14
56831;BME280;42713;42.676;23.352;2022-08-19T10:53:07;94478.72;;;30.01;30.01
56831;BME280;42713;42.676;23.352;2022-08-19T10:55:36;94476.41;;;30.03;30.29
56831;BME280;42713;42.676;23.352;2022-08-19T10:58:21;94483.03;;;30.13;30.53
56831;BME280;42713;42.676;23.352;2022-08-19T11:00:57;94478.09;;;30.22;30.92
56831;BME280;42713;42.676;23.352;2022-08-19T11:03:24;94474.72;;;30.36;31.88
56831;BME280;42713;42.676;23.352;2022-08-19T11:06:04;94484.44;;;30.48;31.44
56831;BME280;42713;42.676;23.352;2022-08-19T11:08:30;94481.13;;;30.66;31.66
56831;BME280;42713;42.676;23.352;2022-08-19T11:11:00;94468.47;;;30.92;30.76
56831;BME280;42713;42.676;23.352;2022-08-19T11:13:31;94465.84;;;31.10;29.89
56831;BME280;42713;42.676;23.352;2022-08-19T11:16:08;94472.16;;;31.35;29.48
56831;BME280;42713;42.676;23.352;2022-08-19T11:18:49;94469.50;;;31.64;29.61
56831;BME280;42713;42.676;23.352;2022-08-19T11:23:48;94459.84;;;32.21;29.17
56831;BME280;42713;42.676;23.352;2022-08-19T11:26:15;94462.97;;;32.45;28.43
56831;BME280;42713;42.676;23.352;2022-08-19T11:28:41;94460.59;;;32.65;28.18
56831;BME280;42713;42.676;23.352;2022-08-19T11:31:16;94457.44;;;32.85;28.45
56831;BME280;42713;42.676;23.352;2022-08-19T11:33:42;94447.69;;;33.02;28.61
56831;BME280;42713;42.676;23.352;2022-08-19T11:36:08;94444.56;;;33.07;27.82
56831;BME280;42713;42.676;23.352;2022-08-19T11:38:35;94446.09;;;33.19;27.82
56831;BME280;42713;42.676;23.352;2022-08-19T11:41:04;94450.69;;;33.26;27.98
56831;BME280;42713;42.676;23.352;2022-08-19T11:43:30;94437.88;;;33.30;27.81
56831;BME280;42713;42.676;23.352;2022-08-19T11:45:56;94436.69;;;33.38;27.62
56831;BME280;42713;42.676;23.352;2022-08-19T11:48:22;94434.78;;;33.24;25.61
56831;BME280;42713;42.676;23.352;2022-08-19T11:50:53;94438.66;;;33.34;26.71
56831;BME280;42713;42.676;23.352;2022-08-19T11:53:22;94433.16;;;33.45;26.90
56831;BME280;42713;42.676;23.352;2022-08-19T11:55:48;94440.09;;;33.53;26.91
56831;BME280;42713;42.676;23.352;2022-08-19T11:58:14;94438.88;;;33.58;27.22
56831;BME280;42713;42.676;23.352;2022-08-19T12:00:41;94438.88;;;33.65;26.43
56831;BME280;42713;42.676;23.352;2022-08-19T12:03:07;94425.66;;;33.63;26.01
56831;BME280;42713;42.676;23.352;2022-08-19T12:05:35;94423.75;;;33.60;25.39
56831;BME280;42713;42.676;23.352;2022-08-19T12:08:01;94418.03;;;33.44;26.04
56831;BME280;42713;42.676;23.352;2022-08-19T12:10:26;94419.59;;;33.45;26.64
56831;BME280;42713;42.676;23.352;2022-08-19T12:12:52;94410.63;;;33.51;26.99
56831;BME280;42713;42.676;23.352;2022-08-19T12:15:17;94407.84;;;33.59;27.26
56831;BME280;42713;42.676;23.352;2022-08-19T12:17:43;94403.16;;;33.66;26.79
56831;BME280;42713;42.676;23.352;2022-08-19T12:20:10;94412.38;;;33.80;27.40
56831;BME280;42713;42.676;23.352;2022-08-19T12:22:39;94399.81;;;33.97;27.05
56831;BME280;42713;42.676;23.352;2022-08-19T12:25:09;94390.81;;;34.04;25.64
56831;BME280;42713;42.676;23.352;2022-08-19T12:27:34;94395.00;;;34.12;25.77
56831;BME280;42713;42.676;23.352;2022-08-19T12:30:01;94388.38;;;34.17;25.78
56831;BME280;42713;42.676;23.352;2022-08-19T12:32:27;94386.09;;;34.11;24.66
56831;BME280;42713;42.676;23.352;2022-08-19T12:34:53;94381.53;;;34.01;24.39
56831;BME280;42713;42.676;23.352;2022-08-19T12:37:19;94375.44;;;33.90;24.61
56831;BME280;42713;42.676;23.352;2022-08-19T12:39:45;94384.25;;;34.01;24.97
56831;BME280;42713;42.676;23.352;2022-08-19T12:42:12;94389.63;;;34.08;24.54
56831;BME280;42713;42.676;23.352;2022-08-19T12:44:40;94370.22;;;34.06;24.66
56831;BME280;42713;42.676;23.352;2022-08-19T12:47:07;94375.28;;;34.08;24.50
56831;BME280;42713;42.676;23.352;2022-08-19T12:49:34;94375.28;;;34.08;24.35
56831;BME280;42713;42.676;23.352;2022-08-19T12:52:04;94361.06;;;33.93;24.66
56831;BME280;42713;42.676;23.352;2022-08-19T12:54:30;94378.34;;;34.10;24.42
56831;BME280;42713;42.676;23.352;2022-08-19T12:56:59;94368.63;;;34.12;24.31
56831;BME280;42713;42.676;23.352;2022-08-19T12:59:37;94356.75;;;33.95;23.92
56831;BME280;42713;42.676;23.352;2022-08-19T13:02:07;94358.72;;;33.91;24.44
56831;BME280;42713;42.676;23.352;2022-08-19T13:04:34;94373.22;;;34.19;24.60
56831;BME280;42713;42.676;23.352;2022-08-19T13:07:02;94365.66;;;34.34;24.66
56831;BME280;42713;42.676;23.352;2022-08-19T13:09:28;94373.56;;;34.63;24.08
56831;BME280;42713;42.676;23.352;2022-08-19T13:11:53;94365.09;;;34.85;23.66
56831;BME280;42713;42.676;23.352;2022-08-19T13:14:19;94364.59;;;34.97;23.01